Aviation Digital Data Service (ADDS)

Output produced by METARs form (0836 UTC 21 September 2018)
found at http://aviationweather.gov/metar/data/
 
KAEX 210753Z 15003KT 7SM CLR 24/22 A2997 RMK AO2 SLP152 T02390222
KAEX 210520Z 2106/2206 13003KT P6SM SCT025 
     FM211700 13007KT P6SM VCTS SCT035CB